sensor_id;sensor_type;location;lat;lon;timestamp;temperature;humidity
13600;DHT22;6871;51.34740610;4.31323160;2022-07-29T07:06:33;22.10;68.60
13600;DHT22;6871;51.34740610;4.31323160;2022-07-29T07:09:02;22.10;69.70
13600;DHT22;6871;51.34740610;4.31323160;2022-07-29T07:11:31;22.20;69.00
13600;DHT22;6871;51.34740610;4.31323160;2022-07-29T07:14:01;22.40;68.20
13600;DHT22;6871;51.34740610;4.31323160;2022-07-29T07:16:30;22.60;67.40
13600;DHT22;6871;51.34740610;4.31323160;2022-07-29T07:18:59;22.80;66.70
13600;DHT22;6871;51.34740610;4.31323160;2022-07-29T07:21:29;23.00;66.30
13600;DHT22;6871;51.34740610;4.31323160;2022-07-29T07:23:58;23.10;65.50
13600;DHT22;6871;51.34740610;4.31323160;2022-07-29T07:26:28;23.30;65.20
13600;DHT22;6871;51.34740610;4.31323160;2022-07-29T07:28:57;23.40;64.90
13600;DHT22;6871;51.34740610;4.31323160;2022-07-29T07:31:28;23.50;65.00
13600;DHT22;6871;51.34740610;4.31323160;2022-07-29T07:33:57;23.50;64.60
13600;DHT22;6871;51.34740610;4.31323160;2022-07-29T07:36:26;23.60;64.80
13600;DHT22;6871;51.34740610;4.31323160;2022-07-29T07:38:56;23.60;65.10
13600;DHT22;6871;51.34740610;4.31323160;2022-07-29T07:41:26;23.70;65.10
13600;DHT22;6871;51.34740610;4.31323160;2022-07-29T07:43:55;23.80;65.10
13600;DHT22;6871;51.34740610;4.31323160;2022-07-29T07:46:24;23.80;65.00
13600;DHT22;6871;51.34740610;4.31323160;2022-07-29T07:48:53;23.90;64.80
13600;DHT22;6871;51.34740610;4.31323160;2022-07-29T07:51:23;24.00;65.00
13600;DHT22;6871;51.34740610;4.31323160;2022-07-29T07:53:52;24.00;64.80
13600;DHT22;6871;51.34740610;4.31323160;2022-07-29T07:56:21;23.90;64.80
13600;DHT22;6871;51.34740610;4.31323160;2022-07-29T07:58:50;23.90;64.90
13600;DHT22;6871;51.34740610;4.31323160;2022-07-29T08:01:20;24.00;65.00
13600;DHT22;6871;51.34740610;4.31323160;2022-07-29T08:03:50;24.10;64.80
13600;DHT22;6871;51.34740610;4.31323160;2022-07-29T08:06:19;24.20;64.90
13600;DHT22;6871;51.34740610;4.31323160;2022-07-29T08:08:49;24.20;64.50
13600;DHT22;6871;51.34740610;4.31323160;2022-07-29T08:11:18;24.20;63.80
13600;DHT22;6871;51.34740610;4.31323160;2022-07-29T08:13:48;24.30;63.60
13600;DHT22;6871;51.34740610;4.31323160;2022-07-29T08:16:18;24.30;63.30
13600;DHT22;6871;51.34740610;4.31323160;2022-07-29T08:18:47;24.30;63.20
13600;DHT22;6871;51.34740610;4.31323160;2022-07-29T08:21:17;24.30;62.80
13600;DHT22;6871;51.34740610;4.31323160;2022-07-29T08:23:46;24.30;62.60
13600;DHT22;6871;51.34740610;4.31323160;2022-07-29T08:26:18;24.30;62.30
13600;DHT22;6871;51.34740610;4.31323160;2022-07-29T08:28:47;24.30;61.80
13600;DHT22;6871;51.34740610;4.31323160;2022-07-29T08:31:18;24.30;61.80
13600;DHT22;6871;51.34740610;4.31323160;2022-07-29T08:33:47;24.30;61.70
13600;DHT22;6871;51.34740610;4.31323160;2022-07-29T08:36:16;24.30;61.80
13600;DHT22;6871;51.34740610;4.31323160;2022-07-29T08:38:46;24.30;62.30
13600;DHT22;6871;51.34740610;4.31323160;2022-07-29T08:41:17;24.30;61.80
13600;DHT22;6871;51.34740610;4.31323160;2022-07-29T08:43:47;24.30;61.80
13600;DHT22;6871;51.34740610;4.31323160;2022-07-29T08:46:16;24.30;62.00
13600;DHT22;6871;51.34740610;4.31323160;2022-07-29T08:48:46;24.30;62.10
13600;DHT22;6871;51.34740610;4.31323160;2022-07-29T08:51:17;24.40;62.20
13600;DHT22;6871;51.34740610;4.31323160;2022-07-29T08:53:47;24.40;62.20
13600;DHT22;6871;51.34740610;4.31323160;2022-07-29T08:56:18;24.40;61.90
13600;DHT22;6871;51.34740610;4.31323160;2022-07-29T08:58:48;24.40;61.90
13600;DHT22;6871;51.34740610;4.31323160;2022-07-29T09:01:22;24.40;61.90
13600;DHT22;6871;51.34740610;4.31323160;2022-07-29T09:03:55;24.40;62.10
13600;DHT22;6871;51.34740610;4.31323160;2022-07-29T09:06:25;24.40;61.90
13600;DHT22;6871;51.34740610;4.31323160;2022-07-29T09:08:59;24.50;61.90
13600;DHT22;6871;51.34740610;4.31323160;2022-07-29T09:11:28;24.50;61.90
13600;DHT22;6871;51.34740610;4.31323160;2022-07-29T09:13:57;24.50;61.80
13600;DHT22;6871;51.34740610;4.31323160;2022-07-29T09:16:27;24.50;61.90
13600;DHT22;6871;51.34740610;4.31323160;2022-07-29T09:18:57;24.50;61.90
13600;DHT22;6871;51.34740610;4.31323160;2022-07-29T09:21:28;24.50;61.80
13600;DHT22;6871;51.34740610;4.31323160;2022-07-29T09:24:16;24.60;61.70
13600;DHT22;6871;51.34740610;4.31323160;2022-07-29T09:26:46;24.60;61.70
13600;DHT22;6871;51.34740610;4.31323160;2022-07-29T09:29:18;24.60;61.50
13600;DHT22;6871;51.34740610;4.31323160;2022-07-29T09:31:49;24.60;61.40
13600;DHT22;6871;51.34740610;4.31323160;2022-07-29T09:34:23;24.60;61.40
13600;DHT22;6871;51.34740610;4.31323160;2022-07-29T09:36:54;24.70;61.60
13600;DHT22;6871;51.34740610;4.31323160;2022-07-29T09:39:31;24.70;61.70
13600;DHT22;6871;51.34740610;4.31323160;2022-07-29T09:42:03;24.70;61.80
13600;DHT22;6871;51.34740610;4.31323160;2022-07-29T09:44:47;24.80;61.60
13600;DHT22;6871;51.34740610;4.31323160;2022-07-29T09:47:17;24.80;61.50
13600;DHT22;6871;51.34740610;4.31323160;2022-07-29T09:49:54;24.80;61.70
13600;DHT22;6871;51.34740610;4.31323160;2022-07-29T09:52:25;24.80;61.70
13600;DHT22;6871;51.34740610;4.31323160;2022-07-29T09:55:04;24.80;61.80
13600;DHT22;6871;51.34740610;4.31323160;2022-07-29T09:57:33;24.90;61.80
13600;DHT22;6871;51.34740610;4.31323160;2022-07-29T10:00:06;24.90;61.80
13600;DHT22;6871;51.34740610;4.31323160;2022-07-29T10:02:37;24.90;61.40
13600;DHT22;6871;51.34740610;4.31323160;2022-07-29T10:05:16;24.90;61.30
13600;DHT22;6871;51.34740610;4.31323160;2022-07-29T10:07:48;24.90;61.30
13600;DHT22;6871;51.34740610;4.31323160;2022-07-29T10:10:22;24.90;61.40
13600;DHT22;6871;51.34740610;4.31323160;2022-07-29T10:12:54;25.00;61.50
13600;DHT22;6871;51.34740610;4.31323160;2022-07-29T10:15:25;25.00;61.40
13600;DHT22;6871;51.34740610;4.31323160;2022-07-29T10:17:56;25.00;61.30
13600;DHT22;6871;51.34740610;4.31323160;2022-07-29T10:20:27;25.00;61.30
13600;DHT22;6871;51.34740610;4.31323160;2022-07-29T10:22:56;25.00;61.30
13600;DHT22;6871;51.34740610;4.31323160;2022-07-29T10:25:26;25.10;61.20
13600;DHT22;6871;51.34740610;4.31323160;2022-07-29T10:27:56;25.10;61.20
13600;DHT22;6871;51.34740610;4.31323160;2022-07-29T10:30:26;25.10;61.10
13600;DHT22;6871;51.34740610;4.31323160;2022-07-29T10:33:08;25.10;61.10
13600;DHT22;6871;51.34740610;4.31323160;2022-07-29T10:35:51;25.10;61.00
13600;DHT22;6871;51.34740610;4.31323160;2022-07-29T10:38:44;25.20;61.00
13600;DHT22;6871;51.34740610;4.31323160;2022-07-29T10:41:37;25.20;61.10
13600;DHT22;6871;51.34740610;4.31323160;2022-07-29T10:44:08;25.20;61.00
13600;DHT22;6871;51.34740610;4.31323160;2022-07-29T10:46:38;25.20;61.10
13600;DHT22;6871;51.34740610;4.31323160;2022-07-29T10:49:12;25.20;61.10
13600;DHT22;6871;51.34740610;4.31323160;2022-07-29T10:52:00;25.20;61.00
13600;DHT22;6871;51.34740610;4.31323160;2022-07-29T10:54:58;25.20;60.90
13600;DHT22;6871;51.34740610;4.31323160;2022-07-29T10:57:30;25.20;60.90
13600;DHT22;6871;51.34740610;4.31323160;2022-07-29T11:00:31;25.30;61.90
13600;DHT22;6871;51.34740610;4.31323160;2022-07-29T11:03:02;25.30;61.00
13600;DHT22;6871;51.34740610;4.31323160;2022-07-29T11:05:51;25.30;61.10
13600;DHT22;6871;51.34740610;4.31323160;2022-07-29T11:08:21;25.30;61.10
13600;DHT22;6871;51.34740610;4.31323160;2022-07-29T11:10:53;25.30;61.10
13600;DHT22;6871;51.34740610;4.31323160;2022-07-29T11:13:47;25.30;61.00
13600;DHT22;6871;51.34740610;4.31323160;2022-07-29T11:16:19;25.40;60.90
13600;DHT22;6871;51.34740610;4.31323160;2022-07-29T11:19:20;25.40;61.20
13600;DHT22;6871;51.34740610;4.31323160;2022-07-29T11:21:50;25.40;60.90
13600;DHT22;6871;51.34740610;4.31323160;2022-07-29T11:24:22;25.40;61.00
13600;DHT22;6871;51.34740610;4.31323160;2022-07-29T11:27:11;25.40;61.00
13600;DHT22;6871;51.34740610;4.31323160;2022-07-29T11:29:48;25.40;61.00
13600;DHT22;6871;51.34740610;4.31323160;2022-07-29T11:32:18;25.40;60.80
13600;DHT22;6871;51.34740610;4.31323160;2022-07-29T11:34:49;25.40;60.90
13600;DHT22;6871;51.34740610;4.31323160;2022-07-29T11:37:21;25.40;60.90
13600;DHT22;6871;51.34740610;4.31323160;2022-07-29T11:40:14;25.40;60.80
13600;DHT22;6871;51.34740610;4.31323160;2022-07-29T11:42:47;25.40;60.70
13600;DHT22;6871;51.34740610;4.31323160;2022-07-29T11:45:19;25.40;60.60
13600;DHT22;6871;51.34740610;4.31323160;2022-07-29T11:47:51;25.50;60.60
13600;DHT22;6871;51.34740610;4.31323160;2022-07-29T11:50:33;25.50;60.60
13600;DHT22;6871;51.34740610;4.31323160;2022-07-29T11:53:10;25.50;60.70
13600;DHT22;6871;51.34740610;4.31323160;2022-07-29T11:55:36;25.50;60.60
13600;DHT22;6871;51.34740610;4.31323160;2022-07-29T11:58:06;25.50;59.90
13600;DHT22;6871;51.34740610;4.31323160;2022-07-29T12:00:38;25.60;60.30
13600;DHT22;6871;51.34740610;4.31323160;2022-07-29T12:03:08;25.60;60.40
13600;DHT22;6871;51.34740610;4.31323160;2022-07-29T12:05:40;25.60;60.60
13600;DHT22;6871;51.34740610;4.31323160;2022-07-29T12:08:12;25.60;60.30
13600;DHT22;6871;51.34740610;4.31323160;2022-07-29T12:10:43;25.60;60.30
13600;DHT22;6871;51.34740610;4.31323160;2022-07-29T12:13:14;25.60;60.30
13600;DHT22;6871;51.34740610;4.31323160;2022-07-29T12:15:52;25.70;60.30
13600;DHT22;6871;51.34740610;4.31323160;2022-07-29T12:18:22;25.70;60.40
13600;DHT22;6871;51.34740610;4.31323160;2022-07-29T12:20:58;25.70;60.40
13600;DHT22;6871;51.34740610;4.31323160;2022-07-29T12:23:28;25.60;60.30
13600;DHT22;6871;51.34740610;4.31323160;2022-07-29T12:25:58;25.60;60.50
13600;DHT22;6871;51.34740610;4.31323160;2022-07-29T12:28:28;25.60;60.50
13600;DHT22;6871;51.34740610;4.31323160;2022-07-29T12:30:57;25.60;60.60
13600;DHT22;6871;51.34740610;4.31323160;2022-07-29T12:33:28;25.60;60.50
13600;DHT22;6871;51.34740610;4.31323160;2022-07-29T12:35:58;25.60;60.60
13600;DHT22;6871;51.34740610;4.31323160;2022-07-29T12:38:29;25.60;60.60
13600;DHT22;6871;51.34740610;4.31323160;2022-07-29T12:40:59;25.60;60.30
13600;DHT22;6871;51.34740610;4.31323160;2022-07-29T12:43:28;25.60;60.90
13600;DHT22;6871;51.34740610;4.31323160;2022-07-29T12:46:00;25.60;60.90
13600;DHT22;6871;51.34740610;4.31323160;2022-07-29T12:48:35;25.60;60.70
13600;DHT22;6871;51.34740610;4.31323160;2022-07-29T12:51:06;25.60;60.60
13600;DHT22;6871;51.34740610;4.31323160;2022-07-29T12:53:37;25.60;60.30
13600;DHT22;6871;51.34740610;4.31323160;2022-07-29T12:56:09;25.60;60.10
13600;DHT22;6871;51.34740610;4.31323160;2022-07-29T12:58:40;25.50;60.30
13600;DHT22;6871;51.34740610;4.31323160;2022-07-29T13:01:12;25.50;61.20
13600;DHT22;6871;51.34740610;4.31323160;2022-07-29T13:03:50;25.50;60.80
13600;DHT22;6871;51.34740610;4.31323160;2022-07-29T13:06:39;25.60;60.70
13600;DHT22;6871;51.34740610;4.31323160;2022-07-29T13:09:11;25.50;61.00
13600;DHT22;6871;51.34740610;4.31323160;2022-07-29T13:11:43;25.50;60.90
13600;DHT22;6871;51.34740610;4.31323160;2022-07-29T13:14:14;25.50;61.00
13600;DHT22;6871;51.34740610;4.31323160;2022-07-29T13:17:02;25.50;61.10
13600;DHT22;6871;51.34740610;4.31323160;2022-07-29T13:19:37;25.50;61.40
13600;DHT22;6871;51.34740610;4.31323160;2022-07-29T13:22:09;25.50;61.10
13600;DHT22;6871;51.34740610;4.31323160;2022-07-29T13:24:49;25.50;61.40
13600;DHT22;6871;51.34740610;4.31323160;2022-07-29T13:27:20;25.50;61.10
13600;DHT22;6871;51.34740610;4.31323160;2022-07-29T13:29:50;25.50;61.50
13600;DHT22;6871;51.34740610;4.31323160;2022-07-29T13:32:20;25.50;61.70
13600;DHT22;6871;51.34740610;4.31323160;2022-07-29T13:34:49;25.50;61.90
13600;DHT22;6871;51.34740610;4.31323160;2022-07-29T13:37:19;25.50;61.70
13600;DHT22;6871;51.34740610;4.31323160;2022-07-29T13:39:48;25.50;61.70
13600;DHT22;6871;51.34740610;4.31323160;2022-07-29T13:42:17;25.60;62.20
13600;DHT22;6871;51.34740610;4.31323160;2022-07-29T13:44:46;25.60;62.30
13600;DHT22;6871;51.34740610;4.31323160;2022-07-29T13:47:18;25.60;62.30
13600;DHT22;6871;51.34740610;4.31323160;2022-07-29T13:49:48;25.60;61.90
13600;DHT22;6871;51.34740610;4.31323160;2022-07-29T13:52:18;25.60;61.80
13600;DHT22;6871;51.34740610;4.31323160;2022-07-29T13:54:47;25.60;61.70
13600;DHT22;6871;51.34740610;4.31323160;2022-07-29T13:57:16;25.60;61.60
13600;DHT22;6871;51.34740610;4.31323160;2022-07-29T13:59:45;25.60;61.10
13600;DHT22;6871;51.34740610;4.31323160;2022-07-29T14:02:15;25.60;61.20
13600;DHT22;6871;51.34740610;4.31323160;2022-07-29T14:04:45;25.60;61.10
13600;DHT22;6871;51.34740610;4.31323160;2022-07-29T14:07:14;25.60;61.20
13600;DHT22;6871;51.34740610;4.31323160;2022-07-29T14:09:43;25.60;61.00
13600;DHT22;6871;51.34740610;4.31323160;2022-07-29T14:12:13;25.60;61.00
13600;DHT22;6871;51.34740610;4.31323160;2022-07-29T14:14:42;25.60;60.90
13600;DHT22;6871;51.34740610;4.31323160;2022-07-29T14:17:11;25.60;60.60
13600;DHT22;6871;51.34740610;4.31323160;2022-07-29T14:19:40;25.60;61.70
13600;DHT22;6871;51.34740610;4.31323160;2022-07-29T14:22:10;25.60;61.00
13600;DHT22;6871;51.34740610;4.31323160;2022-07-29T14:24:39;25.60;61.00
13600;DHT22;6871;51.34740610;4.31323160;2022-07-29T14:27:08;25.60;61.00
13600;DHT22;6871;51.34740610;4.31323160;2022-07-29T14:29:38;25.60;60.80
13600;DHT22;6871;51.34740610;4.31323160;2022-07-29T14:32:08;25.60;60.90
13600;DHT22;6871;51.34740610;4.31323160;2022-07-29T14:34:38;25.60;61.00
13600;DHT22;6871;51.34740610;4.31323160;2022-07-29T14:37:07;25.60;60.80
13600;DHT22;6871;51.34740610;4.31323160;2022-07-29T14:39:37;25.60;60.80
13600;DHT22;6871;51.34740610;4.31323160;2022-07-29T14:42:07;25.60;60.90
13600;DHT22;6871;51.34740610;4.31323160;2022-07-29T14:44:36;25.60;60.70
13600;DHT22;6871;51.34740610;4.31323160;2022-07-29T14:47:05;25.60;61.00
13600;DHT22;6871;51.34740610;4.31323160;2022-07-29T14:49:35;25.60;60.70
13600;DHT22;6871;51.34740610;4.31323160;2022-07-29T14:52:05;25.70;60.40
13600;DHT22;6871;51.34740610;4.31323160;2022-07-29T14:54:34;25.70;60.40
13600;DHT22;6871;51.34740610;4.31323160;2022-07-29T14:57:03;25.70;60.30
13600;DHT22;6871;51.34740610;4.31323160;2022-07-29T14:59:32;25.70;60.10
13600;DHT22;6871;51.34740610;4.31323160;2022-07-29T15:02:01;25.70;60.10
13600;DHT22;6871;51.34740610;4.31323160;2022-07-29T15:04:31;25.70;60.10
13600;DHT22;6871;51.34740610;4.31323160;2022-07-29T15:07:00;25.70;60.10
13600;DHT22;6871;51.34740610;4.31323160;2022-07-29T15:09:29;25.70;60.00
13600;DHT22;6871;51.34740610;4.31323160;2022-07-29T15:11:58;25.80;60.20
13600;DHT22;6871;51.34740610;4.31323160;2022-07-29T15:14:28;25.70;60.20
13600;DHT22;6871;51.34740610;4.31323160;2022-07-29T15:16:57;25.70;60.00
13600;DHT22;6871;51.34740610;4.31323160;2022-07-29T15:19:26;25.80;60.10
13600;DHT22;6871;51.34740610;4.31323160;2022-07-29T15:21:56;25.80;60.00
13600;DHT22;6871;51.34740610;4.31323160;2022-07-29T15:24:25;25.80;60.00
13600;DHT22;6871;51.34740610;4.31323160;2022-07-29T15:26:54;25.80;59.80
13600;DHT22;6871;51.34740610;4.31323160;2022-07-29T15:29:23;25.80;59.80
13600;DHT22;6871;51.34740610;4.31323160;2022-07-29T15:31:52;25.80;60.00
13600;DHT22;6871;51.34740610;4.31323160;2022-07-29T15:34:22;25.80;60.00
13600;DHT22;6871;51.34740610;4.31323160;2022-07-29T15:36:51;25.80;59.90
13600;DHT22;6871;51.34740610;4.31323160;2022-07-29T15:39:21;25.80;59.80
13600;DHT22;6871;51.34740610;4.31323160;2022-07-29T15:41:51;25.80;59.80
13600;DHT22;6871;51.34740610;4.31323160;2022-07-29T15:44:20;25.80;59.60
13600;DHT22;6871;51.34740610;4.31323160;2022-07-29T15:46:50;25.80;59.70
13600;DHT22;6871;51.34740610;4.31323160;2022-07-29T15:49:33;25.90;59.50
13600;DHT22;6871;51.34740610;4.31323160;2022-07-29T15:52:04;25.90;59.60
13600;DHT22;6871;51.34740610;4.31323160;2022-07-29T15:54:35;25.90;59.70
13600;DHT22;6871;51.34740610;4.31323160;2022-07-29T15:57:06;25.90;59.70
13600;DHT22;6871;51.34740610;4.31323160;2022-07-29T15:59:35;25.90;59.60
13600;DHT22;6871;51.34740610;4.31323160;2022-07-29T16:02:05;25.90;59.50
13600;DHT22;6871;51.34740610;4.31323160;2022-07-29T16:04:35;25.90;59.90
13600;DHT22;6871;51.34740610;4.31323160;2022-07-29T16:07:04;25.90;60.00
13600;DHT22;6871;51.34740610;4.31323160;2022-07-29T16:09:33;25.90;60.00
13600;DHT22;6871;51.34740610;4.31323160;2022-07-29T16:12:03;25.90;60.20
13600;DHT22;6871;51.34740610;4.31323160;2022-07-29T16:14:33;25.90;60.00
13600;DHT22;6871;51.34740610;4.31323160;2022-07-29T16:17:02;25.90;60.00
13600;DHT22;6871;51.34740610;4.31323160;2022-07-29T16:19:31;25.90;59.70
13600;DHT22;6871;51.34740610;4.31323160;2022-07-29T16:22:00;25.90;60.40
13600;DHT22;6871;51.34740610;4.31323160;2022-07-29T16:24:29;26.00;60.60
13600;DHT22;6871;51.34740610;4.31323160;2022-07-29T16:26:59;26.00;60.50
13600;DHT22;6871;51.34740610;4.31323160;2022-07-29T16:29:28;26.00;60.40
13600;DHT22;6871;51.34740610;4.31323160;2022-07-29T16:31:58;25.90;61.10
13600;DHT22;6871;51.34740610;4.31323160;2022-07-29T16:34:27;26.00;60.40
13600;DHT22;6871;51.34740610;4.31323160;2022-07-29T16:36:56;25.90;60.30
13600;DHT22;6871;51.34740610;4.31323160;2022-07-29T16:39:25;26.00;60.40
13600;DHT22;6871;51.34740610;4.31323160;2022-07-29T16:42:14;26.00;60.40
13600;DHT22;6871;51.34740610;4.31323160;2022-07-29T16:47:21;26.00;60.50
13600;DHT22;6871;51.34740610;4.31323160;2022-07-29T16:49:50;26.00;60.30
13600;DHT22;6871;51.34740610;4.31323160;2022-07-29T16:52:19;26.00;60.20
13600;DHT22;6871;51.34740610;4.31323160;2022-07-29T16:54:48;26.00;60.20
13600;DHT22;6871;51.34740610;4.31323160;2022-07-29T16:57:17;26.00;60.30
13600;DHT22;6871;51.34740610;4.31323160;2022-07-29T16:59:46;26.00;60.10
13600;DHT22;6871;51.34740610;4.31323160;2022-07-29T17:02:17;26.00;60.10
13600;DHT22;6871;51.34740610;4.31323160;2022-07-29T17:04:46;26.00;60.30
13600;DHT22;6871;51.34740610;4.31323160;2022-07-29T17:07:15;26.00;61.20
13600;DHT22;6871;51.34740610;4.31323160;2022-07-29T17:09:44;26.00;60.60
13600;DHT22;6871;51.34740610;4.31323160;2022-07-29T17:12:13;26.00;60.60
13600;DHT22;6871;51.34740610;4.31323160;2022-07-29T17:14:42;26.00;60.50
13600;DHT22;6871;51.34740610;4.31323160;2022-07-29T17:17:11;26.00;60.20
13600;DHT22;6871;51.34740610;4.31323160;2022-07-29T17:19:40;26.10;60.20
13600;DHT22;6871;51.34740610;4.31323160;2022-07-29T17:22:10;26.10;60.20
13600;DHT22;6871;51.34740610;4.31323160;2022-07-29T17:24:39;26.10;60.30
13600;DHT22;6871;51.34740610;4.31323160;2022-07-29T17:27:09;26.10;60.50
13600;DHT22;6871;51.34740610;4.31323160;2022-07-29T17:29:38;26.10;60.60
13600;DHT22;6871;51.34740610;4.31323160;2022-07-29T17:32:08;26.10;60.70
13600;DHT22;6871;51.34740610;4.31323160;2022-07-29T17:34:38;26.10;60.70
13600;DHT22;6871;51.34740610;4.31323160;2022-07-29T17:37:10;26.00;60.60
13600;DHT22;6871;51.34740610;4.31323160;2022-07-29T17:39:40;26.00;60.70
13600;DHT22;6871;51.34740610;4.31323160;2022-07-29T17:42:10;26.10;61.00
13600;DHT22;6871;51.34740610;4.31323160;2022-07-29T17:44:40;26.00;61.10
13600;DHT22;6871;51.34740610;4.31323160;2022-07-29T17:47:09;26.10;61.20
13600;DHT22;6871;51.34740610;4.31323160;2022-07-29T17:49:38;26.00;61.30
13600;DHT22;6871;51.34740610;4.31323160;2022-07-29T17:52:07;26.00;61.30
13600;DHT22;6871;51.34740610;4.31323160;2022-07-29T17:54:36;26.00;61.70
13600;DHT22;6871;51.34740610;4.31323160;2022-07-29T17:57:05;26.00;61.30
13600;DHT22;6871;51.34740610;4.31323160;2022-07-29T17:59:34;26.00;61.60
13600;DHT22;6871;51.34740610;4.31323160;2022-07-29T18:02:04;26.00;61.70
13600;DHT22;6871;51.34740610;4.31323160;2022-07-29T18:04:33;26.00;61.90
13600;DHT22;6871;51.34740610;4.31323160;2022-07-29T18:07:02;26.00;61.90
13600;DHT22;6871;51.34740610;4.31323160;2022-07-29T18:09:31;26.00;61.90
13600;DHT22;6871;51.34740610;4.31323160;2022-07-29T18:12:00;26.00;61.90
13600;DHT22;6871;51.34740610;4.31323160;2022-07-29T18:14:29;26.00;62.20
13600;DHT22;6871;51.34740610;4.31323160;2022-07-29T18:16:58;26.00;62.40
13600;DHT22;6871;51.34740610;4.31323160;2022-07-29T18:19:27;26.00;62.50
13600;DHT22;6871;51.34740610;4.31323160;2022-07-29T18:21:56;26.00;62.10
13600;DHT22;6871;51.34740610;4.31323160;2022-07-29T18:24:25;26.00;62.70
13600;DHT22;6871;51.34740610;4.31323160;2022-07-29T18:26:55;26.00;63.00
13600;DHT22;6871;51.34740610;4.31323160;2022-07-29T18:29:24;26.00;63.00
13600;DHT22;6871;51.34740610;4.31323160;2022-07-29T18:31:55;26.00;63.00
13600;DHT22;6871;51.34740610;4.31323160;2022-07-29T18:34:25;26.00;63.00
13600;DHT22;6871;51.34740610;4.31323160;2022-07-29T18:36:54;26.00;63.00
13600;DHT22;6871;51.34740610;4.31323160;2022-07-29T18:39:23;26.00;63.10
13600;DHT22;6871;51.34740610;4.31323160;2022-07-29T18:41:53;26.00;62.90
13600;DHT22;6871;51.34740610;4.31323160;2022-07-29T18:44:22;26.00;62.90
13600;DHT22;6871;51.34740610;4.31323160;2022-07-29T18:46:51;26.00;62.90
13600;DHT22;6871;51.34740610;4.31323160;2022-07-29T18:49:22;26.00;62.80
13600;DHT22;6871;51.34740610;4.31323160;2022-07-29T18:51:51;25.90;62.90
13600;DHT22;6871;51.34740610;4.31323160;2022-07-29T18:54:20;26.00;62.60
13600;DHT22;6871;51.34740610;4.31323160;2022-07-29T18:56:49;25.90;63.10
13600;DHT22;6871;51.34740610;4.31323160;2022-07-29T18:59:18;25.90;63.30
13600;DHT22;6871;51.34740610;4.31323160;2022-07-29T19:01:48;25.90;63.00
13600;DHT22;6871;51.34740610;4.31323160;2022-07-29T19:04:17;25.90;62.90
13600;DHT22;6871;51.34740610;4.31323160;2022-07-29T19:06:46;25.90;63.00
13600;DHT22;6871;51.34740610;4.31323160;2022-07-29T19:09:15;25.90;62.90
13600;DHT22;6871;51.34740610;4.31323160;2022-07-29T19:11:44;25.90;62.90
13600;DHT22;6871;51.34740610;4.31323160;2022-07-29T19:14:14;25.90;62.90
13600;DHT22;6871;51.34740610;4.31323160;2022-07-29T19:16:43;25.90;62.90
13600;DHT22;6871;51.34740610;4.31323160;2022-07-29T19:19:12;25.90;62.80
13600;DHT22;6871;51.34740610;4.31323160;2022-07-29T19:21:42;25.90;62.90
13600;DHT22;6871;51.34740610;4.31323160;2022-07-29T19:24:11;25.80;63.20
13600;DHT22;6871;51.34740610;4.31323160;2022-07-29T19:26:42;25.80;62.80
13600;DHT22;6871;51.34740610;4.31323160;2022-07-29T19:29:13;25.80;62.70
13600;DHT22;6871;51.34740610;4.31323160;2022-07-29T19:31:42;25.80;62.80
13600;DHT22;6871;51.34740610;4.31323160;2022-07-29T19:34:11;25.80;62.60
13600;DHT22;6871;51.34740610;4.31323160;2022-07-29T19:36:40;25.80;62.70
13600;DHT22;6871;51.34740610;4.31323160;2022-07-29T19:39:10;25.80;62.80
13600;DHT22;6871;51.34740610;4.31323160;2022-07-29T19:41:39;25.80;62.80
13600;DHT22;6871;51.34740610;4.31323160;2022-07-29T19:44:08;25.80;62.80
13600;DHT22;6871;51.34740610;4.31323160;2022-07-29T19:46:38;25.80;63.40
13600;DHT22;6871;51.34740610;4.31323160;2022-07-29T19:49:07;25.80;63.00
13600;DHT22;6871;51.34740610;4.31323160;2022-07-29T19:51:37;25.70;62.90
13600;DHT22;6871;51.34740610;4.31323160;2022-07-29T19:54:06;25.70;62.80
13600;DHT22;6871;51.34740610;4.31323160;2022-07-29T19:56:35;25.70;62.80
13600;DHT22;6871;51.34740610;4.31323160;2022-07-29T19:59:06;25.70;63.00
13600;DHT22;6871;51.34740610;4.31323160;2022-07-29T20:01:36;25.70;63.30
13600;DHT22;6871;51.34740610;4.31323160;2022-07-29T20:04:05;25.70;63.50
13600;DHT22;6871;51.34740610;4.31323160;2022-07-29T20:06:34;25.70;63.40
13600;DHT22;6871;51.34740610;4.31323160;2022-07-29T20:09:03;25.70;63.40
13600;DHT22;6871;51.34740610;4.31323160;2022-07-29T20:11:33;25.70;63.50
13600;DHT22;6871;51.34740610;4.31323160;2022-07-29T20:14:03;25.70;63.40
13600;DHT22;6871;51.34740610;4.31323160;2022-07-29T20:16:32;25.70;63.60
13600;DHT22;6871;51.34740610;4.31323160;2022-07-29T20:19:01;25.60;63.50
13600;DHT22;6871;51.34740610;4.31323160;2022-07-29T20:21:30;25.70;63.70
13600;DHT22;6871;51.34740610;4.31323160;2022-07-29T20:24:00;25.70;63.60
13600;DHT22;6871;51.34740610;4.31323160;2022-07-29T20:26:31;25.70;63.70
13600;DHT22;6871;51.34740610;4.31323160;2022-07-29T20:29:00;25.60;63.70
13600;DHT22;6871;51.34740610;4.31323160;2022-07-29T20:31:30;25.70;64.80
13600;DHT22;6871;51.34740610;4.31323160;2022-07-29T20:34:00;25.60;63.70
13600;DHT22;6871;51.34740610;4.31323160;2022-07-29T20:36:29;25.60;63.80
13600;DHT22;6871;51.34740610;4.31323160;2022-07-29T20:38:58;25.60;63.70
13600;DHT22;6871;51.34740610;4.31323160;2022-07-29T20:41:28;25.60;63.80
13600;DHT22;6871;51.34740610;4.31323160;2022-07-29T20:43:57;25.60;63.80
13600;DHT22;6871;51.34740610;4.31323160;2022-07-29T20:46:27;25.60;63.90
13600;DHT22;6871;51.34740610;4.31323160;2022-07-29T20:48:56;25.60;63.90
13600;DHT22;6871;51.34740610;4.31323160;2022-07-29T20:51:25;25.60;63.80
13600;DHT22;6871;51.34740610;4.31323160;2022-07-29T20:53:54;25.60;63.80
13600;DHT22;6871;51.34740610;4.31323160;2022-07-29T20:56:23;25.60;63.80
13600;DHT22;6871;51.34740610;4.31323160;2022-07-29T20:58:52;25.60;63.90
13600;DHT22;6871;51.34740610;4.31323160;2022-07-29T21:01:21;25.60;64.00
13600;DHT22;6871;51.34740610;4.31323160;2022-07-29T21:03:50;25.50;63.90